createdAt,value
2018-04-16T00:00:42.362Z,13.50
2018-04-16T00:03:09.863Z,13.60
2018-04-16T00:05:37.360Z,13.70
2018-04-16T00:08:04.878Z,13.70
2018-04-16T00:10:32.458Z,13.70
2018-04-16T00:13:00.706Z,13.70
2018-04-16T00:15:28.243Z,13.70
2018-04-16T00:17:55.780Z,13.70
2018-04-16T00:20:23.313Z,13.80
2018-04-16T00:22:51.597Z,13.70
2018-04-16T00:25:19.837Z,13.70
2018-04-16T00:27:47.353Z,13.70
2018-04-16T00:30:14.896Z,13.70
2018-04-16T00:32:48.044Z,13.70
2018-04-16T00:35:21.351Z,13.70
2018-04-16T00:37:55.194Z,13.50
2018-04-16T00:40:28.239Z,13.50
2018-04-16T00:43:01.458Z,13.50
2018-04-16T00:45:35.508Z,13.30
2018-04-16T00:48:08.735Z,13.30
2018-04-16T00:50:42.037Z,13.20
2018-04-16T00:53:16.209Z,13.00
2018-04-16T00:58:51.756Z,13.00
2018-04-16T01:01:24.905Z,13.00
2018-04-16T01:03:58.893Z,12.90
2018-04-16T01:06:31.994Z,12.90
2018-04-16T01:09:05.296Z,12.90
2018-04-16T01:11:39.132Z,12.90
2018-04-16T01:14:12.220Z,12.90
2018-04-16T01:16:45.453Z,12.90
2018-04-16T01:19:18.693Z,13.00
2018-04-16T01:21:51.863Z,13.00
2018-04-16T01:24:25.680Z,13.00
2018-04-16T01:26:59.682Z,13.00
2018-04-16T01:29:32.897Z,13.00
2018-04-16T01:32:06.066Z,13.00
2018-04-16T01:37:42.055Z,12.90
2018-04-16T01:40:16.068Z,12.90
2018-04-16T01:42:50.176Z,12.90
2018-04-16T01:45:24.457Z,12.80
2018-04-16T01:47:57.535Z,12.80
2018-04-16T01:50:30.852Z,12.70
2018-04-16T01:53:04.213Z,12.50
2018-04-16T01:55:37.255Z,12.40
2018-04-16T01:58:11.274Z,12.20
2018-04-16T02:00:45.154Z,12.20
2018-04-16T02:03:18.275Z,12.20
2018-04-16T02:05:51.550Z,12.20
2018-04-16T02:08:24.712Z,12.10
2018-04-16T02:10:57.944Z,11.90
2018-04-16T02:13:31.913Z,11.80
2018-04-16T02:16:05.063Z,11.80
2018-04-16T02:18:38.273Z,11.90
2018-04-16T02:21:11.842Z,11.90
2018-04-16T02:23:44.982Z,11.90
2018-04-16T02:26:18.194Z,11.90
2018-04-16T02:28:51.371Z,11.80
2018-04-16T02:31:24.341Z,11.80
2018-04-16T02:33:57.482Z,11.80
2018-04-16T02:36:30.784Z,11.70
2018-04-16T02:39:04.763Z,11.60
2018-04-16T02:41:37.968Z,11.60
2018-04-16T02:44:11.035Z,11.70
2018-04-16T02:46:44.246Z,11.60
2018-04-16T02:52:24.852Z,11.70
2018-04-16T02:54:58.694Z,11.60
2018-04-16T02:57:31.917Z,11.60
2018-04-16T03:00:05.071Z,11.60
2018-04-16T03:02:38.322Z,11.60
2018-04-16T03:05:11.487Z,11.60
2018-04-16T03:07:44.814Z,11.60
2018-04-16T03:10:18.690Z,11.60
2018-04-16T03:12:51.912Z,11.60
2018-04-16T03:15:25.083Z,11.60
2018-04-16T03:17:58.704Z,11.70
2018-04-16T03:20:32.673Z,11.80
2018-04-16T03:23:05.910Z,11.80
2018-04-16T03:25:39.784Z,11.70
2018-04-16T03:28:13.000Z,11.70
2018-04-16T03:30:46.245Z,11.60
2018-04-16T03:33:19.704Z,11.60
2018-04-16T03:35:53.668Z,11.30
2018-04-16T03:38:26.809Z,11.30
2018-04-16T03:41:00.685Z,11.30
2018-04-16T03:43:33.900Z,11.30
2018-04-16T03:46:07.898Z,11.20
2018-04-16T03:48:41.305Z,11.20
2018-04-16T03:51:12.333Z,11.30
2018-04-16T03:53:53.556Z,11.30
2018-04-16T03:56:21.084Z,11.30
2018-04-16T03:58:49.366Z,11.30
2018-04-16T04:01:17.781Z,11.30
2018-04-16T04:03:46.002Z,11.30
2018-04-16T04:06:13.888Z,11.30
2018-04-16T04:08:42.264Z,11.40
2018-04-16T04:11:10.644Z,11.50
2018-04-16T04:13:38.917Z,11.50
2018-04-16T04:16:07.189Z,11.40
2018-04-16T04:18:35.453Z,11.40
2018-04-16T04:21:03.028Z,11.40
2018-04-16T04:23:43.208Z,11.50
2018-04-16T04:26:22.637Z,11.50
2018-04-16T04:29:03.062Z,11.20
2018-04-16T04:31:30.541Z,11.20
2018-04-16T04:33:58.824Z,11.30
2018-04-16T04:36:27.094Z,11.30
2018-04-16T04:38:55.532Z,11.30
2018-04-16T04:41:23.152Z,11.20
2018-04-16T04:43:50.685Z,11.30
2018-04-16T04:46:18.171Z,11.20
2018-04-16T04:48:47.136Z,11.30
2018-04-16T04:51:14.620Z,11.30
2018-04-16T04:53:42.164Z,11.30
2018-04-16T04:56:10.431Z,11.30
2018-04-16T04:58:38.096Z,11.30
2018-04-16T05:01:06.357Z,11.40
2018-04-16T05:03:33.858Z,11.30
2018-04-16T05:06:01.718Z,11.50
2018-04-16T05:08:29.964Z,11.70
2018-04-16T05:10:57.534Z,11.70
2018-04-16T05:13:25.840Z,12.00
2018-04-16T05:15:53.392Z,12.00
2018-04-16T05:18:20.937Z,12.20
2018-04-16T05:20:49.221Z,12.80
2018-04-16T05:23:16.816Z,12.80
2018-04-16T05:25:44.430Z,13.10
2018-04-16T05:28:12.728Z,12.80
2018-04-16T05:30:40.220Z,12.80
2018-04-16T05:33:07.716Z,12.70
2018-04-16T05:35:36.029Z,12.70
2018-04-16T05:38:03.561Z,12.70
2018-04-16T05:40:31.825Z,12.90
2018-04-16T05:43:00.150Z,13.40
2018-04-16T05:45:27.684Z,13.40
2018-04-16T05:47:55.954Z,14.40
2018-04-16T05:50:24.466Z,14.70
2018-04-16T05:52:51.955Z,14.70
2018-04-16T05:55:19.868Z,14.90
2018-04-16T05:57:47.364Z,14.90
2018-04-16T06:00:14.872Z,15.10
2018-04-16T06:02:43.448Z,15.60
2018-04-16T06:05:11.705Z,15.70
2018-04-16T06:07:39.312Z,15.60
2018-04-16T06:10:07.579Z,15.00
2018-04-16T06:12:35.850Z,14.60
2018-04-16T06:15:04.120Z,13.90
2018-04-16T06:17:32.743Z,13.70
2018-04-16T06:20:00.229Z,13.70
2018-04-16T06:22:27.731Z,13.70
2018-04-16T06:24:55.729Z,14.20
2018-04-16T06:27:23.240Z,14.50
2018-04-16T06:29:50.692Z,14.50
2018-04-16T06:32:18.965Z,15.40
2018-04-16T06:34:46.453Z,15.40
2018-04-16T06:37:13.963Z,16.10
2018-04-16T06:39:41.514Z,16.10
2018-04-16T06:42:09.016Z,15.80
2018-04-16T06:44:37.291Z,15.10
2018-04-16T06:47:05.573Z,14.90
2018-04-16T06:49:33.861Z,14.70
2018-04-16T06:52:01.368Z,14.60
2018-04-16T06:54:28.862Z,14.40
2018-04-16T06:56:57.120Z,14.60
2018-04-16T06:59:24.668Z,14.50
2018-04-16T07:01:52.220Z,14.70
2018-04-16T07:04:19.693Z,15.00
2018-04-16T07:06:47.262Z,15.20
2018-04-16T07:09:15.684Z,15.20
2018-04-16T07:11:43.178Z,15.20
2018-04-16T07:14:10.674Z,15.20
2018-04-16T07:16:38.184Z,15.00
2018-04-16T07:19:05.703Z,14.80
2018-04-16T07:21:44.669Z,14.60
2018-04-16T07:24:12.239Z,14.50
2018-04-16T07:26:39.688Z,14.40
2018-04-16T07:29:07.201Z,14.40
2018-04-16T07:31:34.744Z,14.40
2018-04-16T07:34:03.017Z,14.30
2018-04-16T07:36:31.371Z,14.40
2018-04-16T07:38:59.748Z,14.50
2018-04-16T07:41:27.234Z,14.50
2018-04-16T07:43:55.528Z,14.70
2018-04-16T07:46:23.024Z,14.70
2018-04-16T07:48:50.538Z,14.80
2018-04-16T07:51:18.480Z,14.80
2018-04-16T07:53:46.807Z,14.90
2018-04-16T07:56:14.311Z,14.90
2018-04-16T07:58:42.083Z,14.90
2018-04-16T08:01:10.357Z,15.00
2018-04-16T08:03:37.838Z,15.00
2018-04-16T08:06:05.347Z,15.10
2018-04-16T08:08:32.846Z,15.20
2018-04-16T08:11:01.101Z,15.70
2018-04-16T08:13:28.629Z,15.60
2018-04-16T08:15:56.237Z,16.10
2018-04-16T08:18:24.528Z,17.30
2018-04-16T08:20:52.037Z,17.30
2018-04-16T08:23:19.528Z,18.20
2018-04-16T08:25:47.793Z,20.10
2018-04-16T08:28:16.084Z,20.80
2018-04-16T08:30:44.337Z,21.00
2018-04-16T08:33:11.828Z,21.00
2018-04-16T08:35:40.113Z,20.90
2018-04-16T08:38:07.640Z,20.90
2018-04-16T08:40:35.916Z,20.10
2018-04-16T08:43:04.186Z,20.00
2018-04-16T08:45:31.725Z,20.00
2018-04-16T08:47:59.256Z,20.00
2018-04-16T08:50:26.820Z,19.80
2018-04-16T08:52:54.305Z,19.90
2018-04-16T08:55:21.929Z,19.90
2018-04-16T08:57:49.544Z,19.80
2018-04-16T09:00:17.219Z,19.90
2018-04-16T09:02:45.488Z,19.90
2018-04-16T09:05:14.047Z,20.00
2018-04-16T09:07:41.666Z,20.00
2018-04-16T09:10:09.195Z,20.20
2018-04-16T09:12:37.472Z,21.10
2018-04-16T09:15:05.776Z,21.20
2018-04-16T09:17:33.284Z,21.20
2018-04-16T09:20:01.616Z,21.10
2018-04-16T09:22:29.143Z,21.10
2018-04-16T09:24:57.408Z,20.70
2018-04-16T09:27:24.921Z,20.70
2018-04-16T09:29:52.513Z,20.50
2018-04-16T09:32:20.809Z,21.40
2018-04-16T09:34:49.096Z,22.30
2018-04-16T09:37:17.376Z,22.90
2018-04-16T09:39:44.868Z,22.80
2018-04-16T09:42:12.380Z,22.80
2018-04-16T09:44:40.756Z,22.00
2018-04-16T09:47:09.016Z,22.00
2018-04-16T09:49:36.531Z,22.00
2018-04-16T09:52:04.032Z,21.70
2018-04-16T09:54:31.660Z,21.50
2018-04-16T09:56:59.275Z,21.20
2018-04-16T09:59:27.520Z,21.90
2018-04-16T10:01:55.006Z,21.90
2018-04-16T10:04:22.522Z,21.70
2018-04-16T10:06:50.004Z,21.50
2018-04-16T10:09:17.532Z,21.10
2018-04-16T10:11:45.035Z,20.70
2018-04-16T10:14:13.296Z,21.10
2018-04-16T10:16:40.875Z,21.10
2018-04-16T10:19:09.149Z,20.90
2018-04-16T10:21:37.405Z,21.70
2018-04-16T10:24:04.972Z,21.70
2018-04-16T10:26:32.488Z,22.60
2018-04-16T10:28:59.976Z,23.30
2018-04-16T10:31:27.469Z,23.80
2018-04-16T10:33:55.737Z,24.40
2018-04-16T10:36:24.181Z,24.50
2018-04-16T10:38:51.788Z,24.50
2018-04-16T10:41:19.295Z,24.70
2018-04-16T10:43:46.781Z,24.10
2018-04-16T10:46:14.263Z,24.20
2018-04-16T10:48:41.767Z,23.50
2018-04-16T10:51:09.266Z,22.50
2018-04-16T10:53:37.538Z,21.60
2018-04-16T10:56:05.109Z,21.60
2018-04-16T10:58:32.608Z,21.80
2018-04-16T11:01:00.227Z,22.20
2018-04-16T11:03:28.478Z,23.00
2018-04-16T11:05:56.023Z,23.00
2018-04-16T11:08:25.032Z,23.30
2018-04-16T11:10:52.661Z,23.30
2018-04-16T11:13:20.237Z,23.00
2018-04-16T11:15:47.828Z,22.30
2018-04-16T11:18:16.200Z,21.60
2018-04-16T11:20:44.580Z,21.50
2018-04-16T11:23:12.871Z,21.80
2018-04-16T11:25:40.437Z,21.80
2018-04-16T11:28:07.936Z,21.80
2018-04-16T11:30:35.530Z,21.30
2018-04-16T11:33:03.064Z,21.20
2018-04-16T11:35:30.566Z,21.20
2018-04-16T11:37:58.091Z,21.10
2018-04-16T11:40:25.703Z,21.40
2018-04-16T11:42:53.190Z,21.30
2018-04-16T11:45:20.688Z,21.50
2018-04-16T11:47:49.026Z,22.00
2018-04-16T11:50:16.581Z,22.00
2018-04-16T11:52:44.145Z,21.60
2018-04-16T11:55:11.689Z,21.60
2018-04-16T11:57:39.200Z,21.50
2018-04-16T12:00:07.474Z,21.20
2018-04-16T12:02:35.785Z,20.90
2018-04-16T12:05:03.289Z,20.90
2018-04-16T12:07:30.791Z,20.80
2018-04-16T12:09:58.431Z,20.70
2018-04-16T12:12:26.692Z,20.80
2018-04-16T12:14:54.215Z,20.80
2018-04-16T12:17:21.767Z,20.80
2018-04-16T12:19:49.242Z,20.70
2018-04-16T12:22:16.771Z,20.80
2018-04-16T12:24:44.295Z,20.80
2018-04-16T12:27:11.807Z,20.80
2018-04-16T12:29:39.275Z,20.80
2018-04-16T12:32:06.858Z,20.80
2018-04-16T12:34:34.445Z,20.60
2018-04-16T12:37:02.726Z,20.30
2018-04-16T12:39:31.001Z,20.10
2018-04-16T12:41:58.492Z,20.10
2018-04-16T12:44:26.051Z,19.80
2018-04-16T12:46:53.567Z,19.70
2018-04-16T12:49:22.023Z,19.50
2018-04-16T12:51:49.518Z,19.50
2018-04-16T12:54:17.358Z,19.60
2018-04-16T12:56:45.608Z,19.90
2018-04-16T12:59:13.107Z,19.90
2018-04-16T13:01:40.649Z,20.10
2018-04-16T13:04:08.981Z,20.20
2018-04-16T13:06:36.467Z,20.20
2018-04-16T13:09:04.062Z,20.30
2018-04-16T13:11:32.326Z,20.20
2018-04-16T13:14:00.590Z,20.20
2018-04-16T13:16:28.125Z,20.20
2018-04-16T13:18:55.594Z,20.20
2018-04-16T13:21:23.115Z,20.10
2018-04-16T13:23:50.644Z,20.20
2018-04-16T13:26:19.109Z,20.40
2018-04-16T13:28:47.359Z,20.70
2018-04-16T13:31:14.853Z,20.70
2018-04-16T13:33:43.148Z,20.80
2018-04-16T13:36:11.004Z,20.80
2018-04-16T13:38:39.312Z,20.70
2018-04-16T13:41:07.273Z,20.70
2018-04-16T13:43:34.815Z,20.60
2018-04-16T13:46:02.308Z,20.50
2018-04-16T13:48:29.861Z,20.30
2018-04-16T13:50:57.364Z,20.30
2018-04-16T13:53:25.765Z,20.10
2018-04-16T13:55:53.327Z,20.10
2018-04-16T13:58:20.835Z,20.00
2018-04-16T14:00:48.329Z,20.00
2018-04-16T14:03:16.594Z,19.80
2018-04-16T14:05:44.102Z,19.80
2018-04-16T14:08:11.613Z,19.60
2018-04-16T14:10:39.903Z,19.60
2018-04-16T14:13:08.167Z,19.70
2018-04-16T14:15:35.672Z,19.70
2018-04-16T14:18:03.295Z,19.90
2018-04-16T14:20:31.594Z,20.50
2018-04-16T14:22:59.124Z,20.50
2018-04-16T14:25:26.653Z,20.50
2018-04-16T14:27:54.156Z,20.40
2018-04-16T14:30:22.556Z,20.30
2018-04-16T14:32:50.394Z,20.30
2018-04-16T14:35:18.722Z,20.30
2018-04-16T14:37:46.952Z,20.20
2018-04-16T14:40:15.262Z,20.10
2018-04-16T14:42:42.744Z,20.10
2018-04-16T14:45:10.297Z,20.10
2018-04-16T14:47:37.810Z,20.10
2018-04-16T14:50:05.417Z,20.10
2018-04-16T14:52:32.909Z,20.10
2018-04-16T14:55:01.244Z,20.10
2018-04-16T14:57:28.743Z,20.00
2018-04-16T14:59:57.060Z,19.80
2018-04-16T15:02:24.596Z,19.80
2018-04-16T15:04:52.140Z,19.70
2018-04-16T15:07:20.416Z,19.60
2018-04-16T15:09:48.792Z,19.40
2018-04-16T15:12:17.065Z,19.50
2018-04-16T15:14:44.602Z,19.50
2018-04-16T15:17:12.496Z,19.60
2018-04-16T15:19:40.055Z,19.60
2018-04-16T15:22:07.499Z,19.40
2018-04-16T15:24:34.992Z,19.40
2018-04-16T15:27:02.494Z,19.70
2018-04-16T15:29:29.993Z,19.90
2018-04-16T15:31:58.249Z,20.30
2018-04-16T15:34:25.745Z,20.30
2018-04-16T15:36:53.276Z,20.30
2018-04-16T15:39:21.666Z,20.20
2018-04-16T15:41:49.257Z,20.20
2018-04-16T15:44:16.780Z,20.00
2018-04-16T15:46:45.060Z,20.00
2018-04-16T15:49:13.321Z,20.00
2018-04-16T15:51:41.597Z,20.00
2018-04-16T15:54:09.952Z,19.90
2018-04-16T15:56:37.480Z,19.90
2018-04-16T15:59:05.065Z,19.80
2018-04-16T16:01:32.549Z,19.80
2018-04-16T16:04:00.156Z,19.80
2018-04-16T16:06:27.780Z,19.80
2018-04-16T16:08:56.052Z,19.60
2018-04-16T16:11:23.620Z,19.60
2018-04-16T16:13:51.911Z,19.60
2018-04-16T16:16:20.185Z,19.70
2018-04-16T16:18:47.677Z,19.70
2018-04-16T16:21:15.332Z,19.60
2018-04-16T16:23:42.903Z,19.60
2018-04-16T16:26:10.417Z,19.50
2018-04-16T16:28:38.009Z,19.50
2018-04-16T16:31:05.426Z,19.40
2018-04-16T16:33:33.683Z,19.20
2018-04-16T16:36:01.185Z,19.20
2018-04-16T16:38:28.723Z,19.20
2018-04-16T16:40:56.972Z,19.20
2018-04-16T16:43:26.057Z,19.10
2018-04-16T16:45:53.550Z,19.10
2018-04-16T16:48:21.064Z,18.90
2018-04-16T16:50:49.530Z,18.90
2018-04-16T16:53:17.188Z,18.90
2018-04-16T16:55:44.664Z,18.90
2018-04-16T16:58:12.265Z,18.90
2018-04-16T17:00:40.535Z,19.00
2018-04-16T17:03:08.821Z,19.00
2018-04-16T17:05:37.093Z,19.00
2018-04-16T17:08:06.219Z,18.80
2018-04-16T17:10:33.805Z,18.80
2018-04-16T17:13:01.397Z,18.90
2018-04-16T17:15:29.704Z,18.90
2018-04-16T17:17:58.003Z,18.80
2018-04-16T17:20:25.575Z,18.80
2018-04-16T17:22:53.486Z,18.80
2018-04-16T17:25:21.082Z,18.80
2018-04-16T17:27:48.721Z,18.80
2018-04-16T17:30:17.028Z,18.60
2018-04-16T17:32:44.629Z,18.60
2018-04-16T17:35:12.428Z,18.60
2018-04-16T17:37:39.959Z,18.70
2018-04-16T17:40:07.614Z,18.70
2018-04-16T17:42:35.180Z,18.70
2018-04-16T17:45:02.729Z,18.70
2018-04-16T17:47:30.330Z,18.80
2018-04-16T17:49:57.891Z,18.80
2018-04-16T17:52:25.428Z,18.80
2018-04-16T17:54:53.747Z,18.70
2018-04-16T17:57:21.591Z,18.70
2018-04-16T17:59:49.105Z,18.60
2018-04-16T18:02:17.453Z,18.60
2018-04-16T18:04:44.965Z,18.50
2018-04-16T18:07:13.709Z,18.40
2018-04-16T18:09:41.249Z,18.40
2018-04-16T18:12:08.983Z,18.30
2018-04-16T18:14:37.310Z,18.20
2018-04-16T18:17:05.524Z,18.20
2018-04-16T18:19:33.793Z,18.10
2018-04-16T18:22:02.765Z,18.00
2018-04-16T18:24:30.306Z,17.90
2018-04-16T18:26:57.826Z,18.10
2018-04-16T18:29:26.119Z,17.90
2018-04-16T18:31:54.676Z,17.90
2018-04-16T18:34:23.068Z,17.80
2018-04-16T18:36:50.597Z,17.80
2018-04-16T18:39:18.925Z,17.70
2018-04-16T18:41:46.498Z,17.70
2018-04-16T18:44:13.990Z,17.70
2018-04-16T18:46:41.561Z,17.60
2018-04-16T18:49:09.850Z,17.50
2018-04-16T18:51:38.224Z,17.50
2018-04-16T18:54:05.763Z,17.40
2018-04-16T18:56:33.345Z,17.40
2018-04-16T18:59:01.626Z,17.50
2018-04-16T19:01:29.908Z,17.50
2018-04-16T19:03:57.508Z,17.40
2018-04-16T19:06:25.188Z,17.40
2018-04-16T19:08:52.850Z,17.20
2018-04-16T19:11:20.379Z,17.00
2018-04-16T19:13:47.893Z,16.70
2018-04-16T19:16:16.311Z,16.40
2018-04-16T19:18:44.017Z,16.40
2018-04-16T19:21:17.100Z,16.30
2018-04-16T19:23:44.757Z,16.20
2018-04-16T19:26:13.571Z,16.00
2018-04-16T19:28:42.151Z,16.00
2018-04-16T19:31:10.105Z,16.00
2018-04-16T19:33:43.441Z,15.90
2018-04-16T19:36:11.299Z,15.90
2018-04-16T19:38:38.881Z,15.90
2018-04-16T19:41:06.416Z,15.80
2018-04-16T19:43:34.807Z,15.80
2018-04-16T19:46:02.355Z,15.70
2018-04-16T19:48:35.633Z,15.70
2018-04-16T19:51:03.974Z,15.70
2018-04-16T19:53:31.667Z,15.70
2018-04-16T19:56:05.488Z,15.50
2018-04-16T19:58:33.743Z,15.50
2018-04-16T20:01:02.852Z,15.40
2018-04-16T20:03:36.891Z,15.40
2018-04-16T20:06:04.408Z,15.30
2018-04-16T20:08:32.002Z,15.30
2018-04-16T20:10:59.528Z,15.30
2018-04-16T20:13:27.038Z,15.30
2018-04-16T20:15:54.574Z,15.30
2018-04-16T20:18:22.838Z,15.20
2018-04-16T20:20:51.979Z,15.20
2018-04-16T20:23:19.585Z,15.20
2018-04-16T20:25:47.912Z,15.10
2018-04-16T20:28:17.446Z,15.10
2018-04-16T20:30:44.973Z,15.00
2018-04-16T20:33:12.488Z,15.00
2018-04-16T20:35:40.753Z,14.80
2018-04-16T20:38:09.292Z,14.80
2018-04-16T20:40:36.825Z,14.70
2018-04-16T20:43:04.556Z,14.70
2018-04-16T20:45:32.089Z,14.70
2018-04-16T20:47:59.613Z,14.60
2018-04-16T20:50:27.173Z,14.60
2018-04-16T20:52:54.735Z,14.40
2018-04-16T20:55:23.376Z,14.30
2018-04-16T20:57:50.878Z,14.30
2018-04-16T21:00:18.390Z,14.30
2018-04-16T21:02:45.961Z,14.20
2018-04-16T21:05:14.385Z,14.30
2018-04-16T21:07:41.897Z,14.20
2018-04-16T21:10:10.491Z,14.20
2018-04-16T21:12:38.813Z,14.20
2018-04-16T21:15:06.309Z,14.20
2018-04-16T21:17:33.889Z,14.20
2018-04-16T21:20:02.165Z,14.20
2018-04-16T21:22:30.498Z,14.20
2018-04-16T21:24:58.012Z,14.20
2018-04-16T21:27:25.548Z,14.20
2018-04-16T21:29:53.818Z,14.10
2018-04-16T21:32:21.389Z,14.10
2018-04-16T21:34:49.659Z,14.00
2018-04-16T21:37:17.970Z,14.00
2018-04-16T21:39:45.506Z,14.00
2018-04-16T21:42:13.862Z,14.00
2018-04-16T21:44:41.340Z,14.00
2018-04-16T21:47:09.669Z,14.00
2018-04-16T21:49:37.173Z,14.00
2018-04-16T21:52:05.467Z,13.80
2018-04-16T21:54:33.045Z,13.80
2018-04-16T21:57:00.593Z,13.80
2018-04-16T21:59:28.073Z,13.70
2018-04-16T22:01:55.656Z,13.70
2018-04-16T22:04:23.163Z,13.60
2018-04-16T22:06:50.681Z,13.60
2018-04-16T22:09:18.229Z,13.60
2018-04-16T22:11:45.748Z,13.60
2018-04-16T22:14:13.243Z,13.60
2018-04-16T22:16:40.764Z,13.60
2018-04-16T22:19:08.303Z,13.60
2018-04-16T22:21:36.572Z,13.50
2018-04-16T22:24:05.153Z,13.50
2018-04-16T22:26:33.424Z,13.60
2018-04-16T22:29:01.684Z,13.60
2018-04-16T22:31:29.260Z,13.60
2018-04-16T22:33:57.630Z,13.60
2018-04-16T22:36:25.166Z,13.60
2018-04-16T22:38:52.729Z,13.60
2018-04-16T22:41:20.228Z,13.60
2018-04-16T22:43:47.774Z,13.60
2018-04-16T22:46:16.149Z,13.50
2018-04-16T22:48:44.420Z,13.50
2018-04-16T22:51:11.909Z,13.50
2018-04-16T22:53:39.460Z,13.50
2018-04-16T22:56:07.026Z,13.40
2018-04-16T22:58:34.521Z,13.40
2018-04-16T23:01:02.121Z,13.40
2018-04-16T23:03:30.380Z,13.40
2018-04-16T23:05:58.016Z,13.40
2018-04-16T23:08:25.557Z,13.40
2018-04-16T23:10:53.089Z,13.30
2018-04-16T23:13:21.341Z,12.90
2018-04-16T23:15:49.633Z,12.70
2018-04-16T23:18:17.880Z,12.40
2018-04-16T23:20:45.577Z,12.40
2018-04-16T23:23:13.087Z,12.20
2018-04-16T23:25:40.640Z,12.10
2018-04-16T23:28:08.142Z,12.00
2018-04-16T23:30:36.592Z,12.00
2018-04-16T23:33:04.113Z,12.00
2018-04-16T23:35:31.642Z,12.00
2018-04-16T23:37:59.962Z,12.10
2018-04-16T23:40:27.448Z,12.10
2018-04-16T23:42:54.952Z,12.20
2018-04-16T23:45:22.643Z,12.20
2018-04-16T23:47:50.127Z,12.30
2018-04-16T23:50:17.669Z,12.30
2018-04-16T23:52:45.221Z,12.30
2018-04-16T23:55:12.734Z,12.20
2018-04-16T23:57:41.003Z,12.10
